Terminal Aerodrome Forecast
Issued by NWS Albany, NY

Home | Current Version | Previous Version | Text Only | Print | Product List | Glossary On
Versions: 1 2 3 4 5 6 7 8 9 10 11 12 13 14 15 16
000
FTUS41 KALY 230600 AAA
TAFPOU
TAF AMD
KPOU 230624Z 2306/2406 21006KT P6SM VCSH FEW045 SCT120
     FM230900 VRB03KT P6SM SCT030 OVC060
     FM231500 22004KT P6SM BKN060
     FM231900 20005KT P6SM SCT060 SCT150=

USA.gov is the U.S. government's official web portal to all federal, state and local government web resources and services.